Time;durP1;ratioP1;P1;durP2;ratioP2;P2;SDS_P1;SDS_P2;PMS_P1;PMS_P2;Temp;Humidity;BMP_temperature;BMP_pressure;BME280_temperature;BME280_humidity;BME280_pressure;Samples;Min_cycle;Max_cycle;Signal;HPM_P1;HPM_P2
2022/02/08 00:00:38;;;;;;;33.08;18.73;;;;;;;1.24;100.00;99167.84;2090700;28;20237;-71
2022/02/08 00:01:50;;;;;;;25.45;19.08;;;;;;;1.25;100.00;99180.75;2090518;28;20241;-71
2022/02/08 00:02:56;;;;;;;33.13;19.77;;;;;;;1.20;100.00;99180.63;2090316;28;20286;-70
2022/02/08 00:04:03;;;;;;;34.83;19.40;;;;;;;1.24;100.00;99181.78;2083256;28;20798;-70
2022/02/08 00:05:07;;;;;;;32.00;19.58;;;;;;;1.26;100.00;99182.34;2090767;28;20175;-71
2022/02/08 00:06:25;;;;;;;24.63;18.83;;;;;;;1.29;100.00;99186.34;2089856;28;20219;-71
2022/02/08 00:07:30;;;;;;;34.65;19.77;;;;;;;1.20;100.00;99169.31;2090285;28;20553;-70
2022/02/08 00:08:34;;;;;;;36.85;20.00;;;;;;;1.24;100.00;99199.38;2090438;28;20197;-70
2022/02/08 00:09:40;;;;;;;33.17;20.52;;;;;;;1.23;100.00;99182.81;2090934;28;20200;-71
2022/02/08 00:10:42;;;;;;;29.67;19.85;;;;;;;1.21;100.00;99189.31;2091094;28;20215;-70
2022/02/08 00:11:46;;;;;;;37.40;19.20;;;;;;;1.22;100.00;99186.47;2090449;28;20649;-71
2022/02/08 00:12:47;;;;;;;40.40;19.55;;;;;;;1.24;100.00;99183.63;2082583;28;20644;-70
2022/02/08 00:13:50;;;;;;;29.67;19.42;;;;;;;1.23;100.00;99176.78;2082009;28;20230;-70
2022/02/08 00:14:57;;;;;;;31.92;19.85;;;;;;;1.26;100.00;99184.97;2090321;28;20195;-71
2022/02/08 00:16:00;;;;;;;34.45;19.77;;;;;;;1.25;100.00;99183.38;2090934;28;20629;-71
2022/02/08 00:17:04;;;;;;;36.15;20.05;;;;;;;1.28;100.00;99184.72;2090558;28;20305;-71
2022/02/08 00:18:07;;;;;;;28.98;19.00;;;;;;;1.33;100.00;99180.41;2090484;28;20187;-70
2022/02/08 00:19:10;;;;;;;33.63;18.85;;;;;;;1.33;100.00;99190.91;2090599;28;20277;-70
2022/02/08 00:20:14;;;;;;;33.95;19.95;;;;;;;1.30;100.00;99185.28;2090354;28;20183;-71
2022/02/08 00:21:16;;;;;;;37.35;19.95;;;;;;;1.28;100.00;99187.38;2089945;28;20621;-70
2022/02/08 00:22:22;;;;;;;44.08;20.17;;;;;;;1.29;100.00;99179.25;2082555;28;20226;-71
2022/02/08 00:23:26;;;;;;;30.60;20.25;;;;;;;1.29;100.00;99196.84;2090280;28;20198;-71
2022/02/08 00:24:31;;;;;;;34.38;20.33;;;;;;;1.33;100.00;99183.03;2090791;28;20278;-70
2022/02/08 00:25:33;;;;;;;33.95;19.67;;;;;;;1.33;100.00;99187.47;2090380;28;20601;-70
2022/02/08 00:26:35;;;;;;;37.25;19.77;;;;;;;1.32;100.00;99197.19;2090274;28;20665;-70
2022/02/08 00:27:41;;;;;;;34.15;19.83;;;;;;;1.34;100.00;99192.50;2090521;28;20277;-70
2022/02/08 00:28:48;;;;;;;36.70;19.65;;;;;;;1.39;100.00;99191.78;2090382;28;20719;-70
2022/02/08 00:29:54;;;;;;;32.58;19.42;;;;;;;1.34;100.00;99192.50;2090271;28;20195;-71
2022/02/08 00:31:01;;;;;;;35.17;19.20;;;;;;;1.31;100.00;99192.97;2090704;28;20551;-71
2022/02/08 00:32:06;;;;;;;33.78;19.23;;;;;;;1.33;100.00;99185.66;2091024;28;20198;-71
2022/02/08 00:33:11;;;;;;;36.95;19.40;;;;;;;1.31;100.00;99182.47;2090058;28;20199;-70
2022/02/08 00:34:14;;;;;;;28.63;18.60;;;;;;;1.37;100.00;99196.47;2082317;28;20202;-71
2022/02/08 00:35:19;;;;;;;32.83;18.85;;;;;;;1.36;100.00;99195.69;2089969;28;20201;-71
2022/02/08 00:36:23;;;;;;;31.98;18.20;;;;;;;1.34;100.00;99191.69;2089689;28;20222;-71
2022/02/08 00:37:28;;;;;;;31.95;18.95;;;;;;;1.35;100.00;99204.59;2090063;28;20213;-70
2022/02/08 00:38:31;;;;;;;32.60;18.85;;;;;;;1.38;100.00;99208.59;2090412;28;20739;-70
2022/02/08 00:39:37;;;;;;;29.42;18.15;;;;;;;1.36;100.00;99197.53;2090989;28;20186;-71
2022/02/08 00:40:40;;;;;;;31.48;18.67;;;;;;;1.36;100.00;99194.88;2090374;28;20673;-70
2022/02/08 00:41:47;;;;;;;30.70;18.92;;;;;;;1.35;100.00;99203.81;2082259;28;20192;-70
2022/02/08 00:42:50;;;;;;;33.70;19.05;;;;;;;1.34;100.00;99207.47;2090295;28;20221;-70
2022/02/08 00:44:01;;;;;;;31.40;18.80;;;;;;;1.34;100.00;99207.47;2090070;28;20191;-70
2022/02/08 00:45:19;;;;;;;44.47;19.85;;;;;;;1.36;100.00;99215.91;2090859;28;20203;-71
2022/02/08 00:46:30;;;;;;;31.02;18.50;;;;;;;1.32;100.00;99201.66;2089885;28;20245;-70
2022/02/08 00:47:40;;;;;;;33.47;19.83;;;;;;;1.35;100.00;99204.59;2083022;28;20195;-70
2022/02/08 00:48:54;;;;;;;35.42;19.23;;;;;;;1.36;100.00;99208.81;2090314;28;20258;-71
2022/02/08 00:50:06;;;;;;;34.05;18.73;;;;;;;1.43;100.00;99211.34;2090591;28;20200;-70
2022/02/08 00:51:10;;;;;;;35.97;19.80;;;;;;;1.45;100.00;99213.72;2089413;28;20237;-70
2022/02/08 00:52:15;;;;;;;35.25;19.42;;;;;;;1.43;100.00;99216.59;2081915;28;20204;-70
2022/02/08 00:53:19;;;;;;;29.55;18.55;;;;;;;1.40;100.00;99217.06;2082365;28;20195;-70
2022/02/08 00:54:25;;;;;;;31.88;18.10;;;;;;;1.40;100.00;99211.81;2090213;28;20199;-70
2022/02/08 00:55:32;;;;;;;31.38;18.27;;;;;;;1.42;100.00;99213.16;2089929;28;20210;-70
2022/02/08 00:56:36;;;;;;;31.13;19.50;;;;;;;1.45;100.00;99218.97;2090191;28;20244;-70
2022/02/08 00:57:41;;;;;;;32.45;20.10;;;;;;;1.46;100.00;99218.75;2082446;28;20546;-70
2022/02/08 00:58:46;;;;;;;33.03;19.45;;;;;;;1.46;100.00;99225.84;2082249;28;20204;-71
2022/02/08 00:59:50;;;;;;;30.30;18.95;;;;;;;1.46;100.00;99216.13;2089980;28;20271;-70
2022/02/08 01:00:52;;;;;;;31.65;18.83;;;;;;;1.49;100.00;99230.66;2090184;28;20294;-71
2022/02/08 01:01:57;;;;;;;29.07;18.70;;;;;;;1.51;100.00;99229.38;2090247;28;20178;-71
2022/02/08 01:03:00;;;;;;;28.23;18.25;;;;;;;1.50;100.00;99225.16;2090579;28;20553;-71
2022/02/08 01:04:05;;;;;;;29.35;18.48;;;;;;;1.50;100.00;99246.19;2089780;28;20201;-70
2022/02/08 01:05:10;;;;;;;37.33;19.08;;;;;;;1.52;100.00;99217.03;2090163;28;20217;-71
2022/02/08 01:06:16;;;;;;;37.13;18.85;;;;;;;1.50;100.00;99221.72;2089503;28;20265;-70
2022/02/08 01:07:18;;;;;;;42.05;20.05;;;;;;;1.58;100.00;99226.63;2090144;28;20179;-70
2022/02/08 01:08:30;;;;;;;30.27;18.80;;;;;;;1.62;100.00;99233.81;2089865;28;20253;-71
2022/02/08 01:09:44;;;;;;;29.38;18.75;;;;;;;1.57;100.00;99228.47;2090022;28;20286;-70
2022/02/08 01:10:49;;;;;;;29.85;19.13;;;;;;;1.55;100.00;99241.00;2090120;28;20195;-71
2022/02/08 01:11:58;;;;;;;35.13;19.55;;;;;;;1.55;100.00;99235.75;2082505;28;20234;-70
2022/02/08 01:13:02;;;;;;;25.13;18.77;;;;;;;1.53;100.00;99239.66;2082929;28;20204;-70
2022/02/08 01:14:05;;;;;;;34.13;19.75;;;;;;;1.50;100.00;99240.13;2081881;28;20214;-71
2022/02/08 01:15:09;;;;;;;31.30;19.17;;;;;;;1.46;100.00;99239.78;2090049;28;20270;-70
2022/02/08 01:16:14;;;;;;;28.40;18.55;;;;;;;1.49;100.00;99246.44;2090105;28;20206;-71
2022/02/08 01:17:22;;;;;;;30.40;19.08;;;;;;;1.46;100.00;99241.59;2090166;28;20547;-70
2022/02/08 01:18:24;;;;;;;25.55;17.45;;;;;;;1.55;100.00;99235.75;2089747;28;20248;-70
2022/02/08 01:19:28;;;;;;;29.00;17.77;;;;;;;1.57;100.00;99254.75;2089788;28;20199;-70
2022/02/08 01:20:33;;;;;;;23.95;18.23;;;;;;;1.56;100.00;99245.25;2090000;28;20712;-71
2022/02/08 01:21:35;;;;;;;26.38;18.33;;;;;;;1.55;100.00;99241.00;2081819;28;20227;-70
2022/02/08 01:22:41;;;;;;;35.13;20.52;;;;;;;1.58;100.00;99243.19;2081618;28;20192;-70
2022/02/08 01:23:47;;;;;;;36.42;19.20;;;;;;;1.58;100.00;99258.97;2082630;28;20199;-71
2022/02/08 01:24:51;;;;;;;34.72;19.15;;;;;;;1.58;100.00;99258.97;2081979;28;20673;-71
2022/02/08 01:26:05;;;;;;;30.63;19.95;;;;;;;1.57;100.00;99262.63;2090039;28;20213;-71
2022/02/08 01:27:11;;;;;;;29.90;18.70;;;;;;;1.63;100.00;99248.53;2090552;28;20202;-71
2022/02/08 01:28:21;;;;;;;30.92;18.35;;;;;;;1.62;100.00;99244.31;2089542;28;20326;-71
2022/02/08 01:29:37;;;;;;;30.55;19.85;;;;;;;1.60;100.00;99254.28;2089988;28;20182;-71
2022/02/08 01:30:54;;;;;;;30.60;18.88;;;;;;;1.58;100.00;99251.09;2090405;28;20186;-71
2022/02/08 01:32:15;;;;;;;27.08;19.40;;;;;;;1.62;100.00;99261.94;2089939;28;20603;-71
2022/02/08 01:33:38;;;;;;;30.70;20.27;;;;;;;1.57;100.00;99260.00;2089994;28;20205;-70
2022/02/08 01:34:55;;;;;;;32.58;19.63;;;;;;;1.58;100.00;99258.97;2089952;28;20198;-71
2022/02/08 01:36:22;;;;;;;28.70;18.70;;;;;;;1.55;100.00;99256.00;2088992;28;20174;-71
2022/02/08 01:37:43;;;;;;;27.02;18.65;;;;;;;1.56;100.00;99263.66;2089958;28;20195;-70
2022/02/08 01:38:59;;;;;;;29.80;19.05;;;;;;;1.53;100.00;99253.59;2084305;28;20198;-70
2022/02/08 01:40:09;;;;;;;31.00;18.92;;;;;;;1.61;100.00;99261.13;2083082;28;20196;-71
2022/02/08 01:41:29;;;;;;;26.08;18.38;;;;;;;1.64;100.00;99257.22;2089835;28;20191;-70
2022/02/08 01:42:44;;;;;;;25.80;17.83;;;;;;;1.61;100.00;99261.13;2089714;28;20198;-70
2022/02/08 01:44:10;;;;;;;27.17;17.90;;;;;;;1.60;100.00;99259.53;2083416;28;20203;-70
2022/02/08 01:46:50;;;;;;;31.23;18.83;;;;;;;1.63;100.00;99277.47;2088417;28;20222;-70
2022/02/08 01:48:06;;;;;;;28.48;18.60;;;;;;;1.64;100.00;99270.38;2089931;28;20628;-70
2022/02/08 01:49:15;;;;;;;29.13;18.58;;;;;;;1.57;100.00;99262.63;2090054;28;20252;-70
2022/02/08 01:50:22;;;;;;;34.08;18.27;;;;;;;1.63;100.00;99263.53;2082482;28;20286;-71
2022/02/08 01:51:26;;;;;;;27.98;18.13;;;;;;;1.66;100.00;99270.97;2081577;28;20231;-70
2022/02/08 01:52:29;;;;;;;24.98;19.13;;;;;;;1.69;100.00;99268.66;2089887;28;20207;-72
2022/02/08 01:53:34;;;;;;;27.08;18.77;;;;;;;1.75;100.00;99266.94;2081893;28;20803;-70
2022/02/08 01:54:38;;;;;;;30.10;19.00;;;;;;;1.79;100.00;99268.06;2089408;28;20195;-71
2022/02/08 01:55:43;;;;;;;23.67;18.23;;;;;;;1.76;100.00;99270.38;2089701;28;20603;-71
2022/02/08 01:56:50;;;;;;;27.58;18.60;;;;;;;1.79;100.00;99280.41;2082400;28;20255;-71
2022/02/08 01:57:57;;;;;;;34.15;18.15;;;;;;;1.80;100.00;99264.38;2089987;28;20198;-71
2022/02/08 01:59:02;;;;;;;21.00;16.67;;;;;;;1.75;100.00;99277.47;2089359;28;20207;-70
2022/02/08 02:00:13;;;;;;;25.55;18.48;;;;;;;1.78;100.00;99273.56;2082979;28;20204;-71
2022/02/08 02:01:19;;;;;;;23.65;18.05;;;;;;;1.74;100.00;99290.81;2089868;28;20195;-71
2022/02/08 02:02:21;;;;;;;24.25;18.27;;;;;;;1.75;100.00;99282.72;2089609;28;20288;-70
2022/02/08 02:03:27;;;;;;;32.30;19.10;;;;;;;1.76;100.00;99276.44;2081797;28;20207;-71
2022/02/08 02:04:29;;;;;;;25.67;18.60;;;;;;;1.74;100.00;99291.66;2089730;28;20211;-71
2022/02/08 02:05:36;;;;;;;34.85;18.90;;;;;;;1.76;100.00;99279.06;2089577;28;20198;-70
2022/02/08 02:06:41;;;;;;;27.25;17.38;;;;;;;1.75;100.00;99281.94;2081875;28;20265;-71
2022/02/08 02:07:50;;;;;;;27.60;16.98;;;;;;;1.75;100.00;99287.19;2082454;28;20206;-71
2022/02/08 02:08:54;;;;;;;25.73;16.73;;;;;;;1.77;100.00;99290.38;2089770;28;20199;-71
2022/02/08 02:09:58;;;;;;;28.27;18.15;;;;;;;1.79;100.00;99288.31;2081624;28;20191;-70
2022/02/08 02:11:04;;;;;;;22.67;17.23;;;;;;;1.87;100.00;99290.56;2082216;28;20214;-70
2022/02/08 02:12:12;;;;;;;27.15;17.73;;;;;;;1.84;100.00;99296.31;2081537;28;20200;-71
2022/02/08 02:13:32;;;;;;;27.42;17.77;;;;;;;1.80;100.00;99300.41;2089678;28;20191;-71
2022/02/08 02:14:39;;;;;;;26.45;17.15;;;;;;;1.83;100.00;99294.72;2089451;28;20223;-71
2022/02/08 02:15:43;;;;;;;32.45;17.02;;;;;;;1.83;100.00;99294.72;2082301;28;20825;-72
2022/02/08 02:16:56;;;;;;;25.63;18.83;;;;;;;1.80;100.00;99298.59;2089594;28;20245;-71
2022/02/08 02:18:00;;;;;;;30.35;17.67;;;;;;;1.78;100.00;99311.19;2089731;28;20286;-71
2022/02/08 02:19:05;;;;;;;30.67;16.95;;;;;;;1.76;100.00;99307.19;2082026;28;20726;-72
2022/02/08 02:20:13;;;;;;;30.27;18.17;;;;;;;1.79;100.00;99306.72;2089668;28;20685;-71
2022/02/08 02:21:17;;;;;;;28.10;17.38;;;;;;;1.85;100.00;99316.31;2081355;28;20216;-71
2022/02/08 02:22:21;;;;;;;30.75;17.88;;;;;;;1.80;100.00;99308.31;2081961;28;20206;-71
2022/02/08 02:23:26;;;;;;;28.48;18.38;;;;;;;1.80;100.00;99310.94;2089654;28;20273;-71
2022/02/08 02:24:30;;;;;;;27.10;17.13;;;;;;;1.74;100.00;99306.59;2089536;28;20575;-72
2022/02/08 02:25:37;;;;;;;29.90;17.98;;;;;;;1.72;100.00;99313.94;2081996;28;20681;-72
2022/02/08 02:26:40;;;;;;;28.75;18.55;;;;;;;1.70;100.00;99312.34;2089574;28;20265;-72
2022/02/08 02:27:48;;;;;;;29.40;18.10;;;;;;;1.71;100.00;99313.13;2081194;28;20204;-72
2022/02/08 02:28:53;;;;;;;26.40;17.83;;;;;;;1.69;100.00;99320.47;2082485;28;20679;-72
2022/02/08 02:29:56;;;;;;;30.33;17.65;;;;;;;1.72;100.00;99313.94;2081800;28;20219;-72
2022/02/08 02:30:58;;;;;;;30.85;17.75;;;;;;;1.75;100.00;99324.00;2089458;28;20206;-72
2022/02/08 02:32:03;;;;;;;32.22;18.45;;;;;;;1.70;100.00;99327.31;2089512;28;20191;-72
2022/02/08 02:33:08;;;;;;;28.98;18.27;;;;;;;1.64;100.00;99321.13;2082060;28;20200;-72
2022/02/08 02:34:17;;;;;;;29.42;17.75;;;;;;;1.65;100.00;99324.56;2081962;28;20260;-72
2022/02/08 02:35:22;;;;;;;31.15;17.77;;;;;;;1.64;100.00;99334.28;2089666;28;20172;-72
2022/02/08 02:36:25;;;;;;;23.75;17.00;;;;;;;1.63;100.00;99324.00;2089078;28;20253;-72
2022/02/08 02:37:31;;;;;;;26.98;17.23;;;;;;;1.62;100.00;99325.84;2089502;28;20685;-72
2022/02/08 02:38:34;;;;;;;24.48;17.38;;;;;;;1.60;100.00;99335.78;2089416;28;20210;-72
2022/02/08 02:39:42;;;;;;;29.50;17.75;;;;;;;1.63;100.00;99327.44;2081601;28;20206;-72
2022/02/08 02:40:48;;;;;;;31.20;17.77;;;;;;;1.68;100.00;99334.66;2081320;28;20277;-72
2022/02/08 02:42:00;;;;;;;21.65;17.75;;;;;;;1.65;100.00;99330.66;2089742;28;20199;-72
2022/02/08 02:43:03;;;;;;;23.52;16.88;;;;;;;1.68;100.00;99332.81;2089636;28;20195;-71
2022/02/08 02:44:10;;;;;;;26.40;16.73;;;;;;;1.69;100.00;99346.75;2089387;28;20227;-72
2022/02/08 02:45:12;;;;;;;24.17;16.45;;;;;;;1.65;100.00;99338.53;2081572;28;20202;-72
2022/02/08 02:46:18;;;;;;;27.75;17.05;;;;;;;1.65;100.00;99341.16;2089365;28;20685;-71
2022/02/08 02:47:24;;;;;;;27.38;17.85;;;;;;;1.65;100.00;99340.34;2081917;28;20203;-72
2022/02/08 02:48:27;;;;;;;29.48;17.85;;;;;;;1.62;100.00;99338.19;2082853;28;20203;-71
2022/02/08 02:49:34;;;;;;;33.00;17.23;;;;;;;1.68;100.00;99342.53;2083132;28;20191;-72
2022/02/08 02:50:41;;;;;;;28.92;17.40;;;;;;;1.62;100.00;99346.88;2090946;28;20199;-72
2022/02/08 02:51:46;;;;;;;29.98;17.52;;;;;;;1.59;100.00;99351.81;2090551;28;20696;-72
2022/02/08 02:52:52;;;;;;;31.02;17.30;;;;;;;1.61;100.00;99350.53;2083447;28;20724;-73
2022/02/08 02:54:00;;;;;;;23.65;17.90;;;;;;;1.59;100.00;99349.97;2091243;28;20270;-71
2022/02/08 02:55:04;;;;;;;25.88;17.30;;;;;;;1.58;100.00;99345.75;2091761;28;20652;-71
2022/02/08 02:56:09;;;;;;;28.30;17.10;;;;;;;1.61;100.00;99355.78;2090862;28;20199;-71
2022/02/08 02:57:12;;;;;;;29.20;17.52;;;;;;;1.58;100.00;99364.16;2083382;28;20199;-71
2022/02/08 02:58:16;;;;;;;27.92;17.23;;;;;;;1.57;100.00;99359.94;2083047;28;20203;-71
2022/02/08 02:59:21;;;;;;;32.88;17.95;;;;;;;1.56;100.00;99347.78;2090980;28;20199;-72
2022/02/08 03:00:36;;;;;;;25.10;17.58;;;;;;;1.59;100.00;99357.06;2091119;28;20647;-71
2022/02/08 03:02:08;;;;;;;23.73;17.50;;;;;;;1.56;100.00;99358.31;2084303;28;20742;-71
2022/02/08 03:03:26;;;;;;;29.83;17.65;;;;;;;1.59;100.00;99363.13;2090749;28;20210;-72
2022/02/08 03:04:39;;;;;;;26.35;17.15;;;;;;;1.53;100.00;99369.28;2090934;28;20194;-72
2022/02/08 03:06:00;;;;;;;23.33;17.63;;;;;;;1.54;100.00;99368.25;2084257;28;20773;-72
2022/02/08 03:19:21;;;;;;;29.35;17.30;;;;;;;1.39;100.00;99388.94;2082555;28;20203;-71
2022/02/08 03:20:24;;;;;;;31.02;18.90;;;;;;;1.39;100.00;99388.94;2082498;28;20211;-72
2022/02/08 03:21:32;;;;;;;24.52;18.00;;;;;;;1.43;100.00;99408.50;2079700;28;20253;-71
2022/02/08 03:22:36;;;;;;;20.70;17.30;;;;;;;1.41;100.00;99384.28;2090781;28;20242;-72
2022/02/08 03:23:40;;;;;;;28.98;17.48;;;;;;;1.41;100.00;99387.69;2090930;28;20285;-71
2022/02/08 03:24:47;;;;;;;25.92;16.80;;;;;;;1.39;100.00;99394.19;2083075;28;20662;-71
2022/02/08 03:25:49;;;;;;;26.85;18.35;;;;;;;1.43;100.00;99395.34;2090879;28;20195;-71
2022/02/08 03:27:04;;;;;;;23.77;21.40;;;;;;;1.44;100.00;99396.16;2084009;28;20215;-71
2022/02/08 03:28:08;;;;;;;27.77;22.27;;;;;;;1.44;100.00;99393.53;2082692;28;20270;-72
2022/02/08 03:29:14;;;;;;;31.35;22.10;;;;;;;1.42;100.00;99389.28;2082956;28;20693;-71
2022/02/08 03:30:17;;;;;;;34.90;23.60;;;;;;;1.39;100.00;99409.97;2083413;28;20249;-72
2022/02/08 03:31:21;;;;;;;29.83;21.05;;;;;;;1.41;100.00;99397.41;2082668;28;20619;-71
2022/02/08 03:32:23;;;;;;;29.55;21.75;;;;;;;1.44;100.00;99394.31;2090686;28;20191;-71
2022/02/08 03:33:27;;;;;;;31.50;21.58;;;;;;;1.40;100.00;99398.44;2090579;28;20195;-71
2022/02/08 03:34:29;;;;;;;28.42;22.95;;;;;;;1.39;100.00;99410.78;2082632;28;20200;-71
2022/02/08 03:35:38;;;;;;;35.40;22.38;;;;;;;1.39;100.00;99399.44;2090664;28;20695;-72
2022/02/08 03:36:41;;;;;;;32.00;21.00;;;;;;;1.36;100.00;99405.19;2083598;28;20702;-71
2022/02/08 03:37:58;;;;;;;35.45;20.40;;;;;;;1.36;100.00;99415.69;2082481;28;20249;-71
2022/02/08 03:39:13;;;;;;;27.75;20.38;;;;;;;1.37;100.00;99412.03;2082191;28;20200;-71
2022/02/08 03:40:37;;;;;;;24.63;18.83;;;;;;;1.35;100.00;99400.94;2082845;28;20180;-71
2022/02/08 03:41:54;;;;;;;25.02;17.88;;;;;;;1.37;100.00;99409.41;2082477;28;20291;-72
2022/02/08 03:43:11;;;;;;;32.13;18.85;;;;;;;1.45;100.00;99403.00;2082397;28;20196;-72
2022/02/08 03:44:18;;;;;;;24.67;18.17;;;;;;;1.39;100.00;99436.25;2076396;28;20203;-71
2022/02/08 03:45:21;;;;;;;29.50;18.50;;;;;;;1.36;100.00;99420.94;2081906;28;20210;-71
2022/02/08 03:46:29;;;;;;;29.90;18.42;;;;;;;1.37;100.00;99414.66;2082290;28;20239;-71
2022/02/08 03:47:31;;;;;;;33.65;18.48;;;;;;;1.37;100.00;99422.53;2082235;28;20245;-71
2022/02/08 03:48:39;;;;;;;24.55;17.30;;;;;;;1.35;100.00;99419.34;2082210;28;20206;-71
2022/02/08 03:49:42;;;;;;;28.90;17.33;;;;;;;1.34;100.00;99428.25;2082179;28;20204;-71
2022/02/08 03:50:53;;;;;;;25.23;16.65;;;;;;;1.34;100.00;99423.81;2074605;28;20670;-71
2022/02/08 03:52:04;;;;;;;36.65;18.20;;;;;;;1.34;100.00;99428.25;2074855;28;20219;-71
2022/02/08 03:53:07;;;;;;;28.52;17.55;;;;;;;1.34;100.00;99430.88;2075424;28;20216;-71
2022/02/08 03:54:10;;;;;;;28.17;17.65;;;;;;;1.43;100.00;99424.28;2082341;28;20188;-72
2022/02/08 03:55:15;;;;;;;30.33;18.58;;;;;;;1.39;100.00;99425.75;2083012;28;20191;-71
2022/02/08 03:56:21;;;;;;;39.88;17.10;;;;;;;1.40;100.00;99433.44;2082812;28;20230;-71
2022/02/08 03:57:28;;;;;;;23.48;16.95;;;;;;;1.36;100.00;99427.00;2081818;28;20196;-72
2022/02/08 03:58:34;;;;;;;24.50;17.50;;;;;;;1.39;100.00;99441.50;2074782;28;20208;-71
2022/02/08 03:59:38;;;;;;;28.27;17.67;;;;;;;1.38;100.00;99438.09;2073628;28;20224;-71
2022/02/08 04:00:51;;;;;;;27.13;16.80;;;;;;;1.41;100.00;99455.25;2074270;28;20698;-71
2022/02/08 04:03:15;;;;;;;34.38;17.75;;;;;;;1.37;100.00;99451.47;2082982;28;20214;-71
2022/02/08 04:04:30;;;;;;;27.15;17.42;;;;;;;1.36;100.00;99449.84;2083023;28;20200;-71
2022/02/08 04:05:40;;;;;;;28.33;18.00;;;;;;;1.37;100.00;99465.41;2083049;28;20175;-71
2022/02/08 04:06:44;;;;;;;24.55;17.70;;;;;;;1.36;100.00;99458.53;2082599;28;20223;-71
2022/02/08 04:07:51;;;;;;;32.65;19.30;;;;;;;1.35;100.00;99458.78;2082849;28;20179;-71
2022/02/08 04:08:57;;;;;;;25.55;18.00;;;;;;;1.34;100.00;99455.34;2083074;28;20172;-71
2022/02/08 04:10:03;;;;;;;23.15;18.13;;;;;;;1.34;100.00;99465.88;2083023;28;20180;-71
2022/02/08 04:11:08;;;;;;;25.55;17.35;;;;;;;1.39;100.00;99460.75;2082888;28;20209;-71
2022/02/08 04:12:17;;;;;;;22.52;18.33;;;;;;;1.41;100.00;99466.56;2082893;28;20291;-71
2022/02/08 04:13:23;;;;;;;23.73;17.50;;;;;;;1.38;100.00;99466.19;2083012;28;20199;-71
2022/02/08 04:14:36;;;;;;;28.83;16.73;;;;;;;1.35;100.00;99485.88;2082800;28;20590;-71
2022/02/08 04:15:58;;;;;;;31.00;16.83;;;;;;;1.37;100.00;99480.38;2082716;28;20286;-71
2022/02/08 04:17:09;;;;;;;31.95;18.70;;;;;;;1.38;100.00;99476.72;2082722;28;20187;-71
2022/02/08 04:18:38;;;;;;;23.70;16.80;;;;;;;1.37;100.00;99480.38;2082902;28;20184;-71
2022/02/08 04:19:50;;;;;;;23.77;17.05;;;;;;;1.29;100.00;99484.13;2082831;28;20172;-71
2022/02/08 04:34:55;;;;;;;25.60;19.17;;;;;;;1.36;100.00;99494.53;2122193;23;20238;-72
2022/02/08 04:36:13;;;;;;;25.25;22.23;;;;;;;1.38;100.00;99509.06;2048836;29;20309;-72
2022/02/08 04:38:56;;;;;;;28.77;20.13;;;;;;;1.41;100.00;99506.00;2046630;29;20202;-72
2022/02/08 04:40:30;;;;;;;27.75;19.85;;;;;;;1.42;100.00;99504.16;2050552;28;20218;-72
2022/02/08 04:41:58;;;;;;;34.15;21.58;;;;;;;1.42;100.00;99517.31;2050282;28;20576;-72
2022/02/08 04:43:34;;;;;;;34.28;20.90;;;;;;;1.44;100.00;99517.88;2050323;29;20190;-72
2022/02/08 04:44:44;;;;;;;27.67;20.00;;;;;;;1.51;100.00;99521.22;2050626;28;20576;-71
2022/02/08 04:46:07;;;;;;;28.20;20.42;;;;;;;1.50;100.00;99517.00;2050297;28;20225;-73
2022/02/08 04:47:28;;;;;;;29.02;18.83;;;;;;;1.49;100.00;99504.88;2050317;28;20187;-72
2022/02/08 04:48:56;;;;;;;30.58;19.90;;;;;;;1.48;100.00;99511.16;2050242;28;20257;-72
2022/02/08 04:50:18;;;;;;;30.40;19.80;;;;;;;1.45;100.00;99524.75;2050226;28;20198;-71
2022/02/08 04:51:38;;;;;;;23.58;17.98;;;;;;;1.42;100.00;99515.50;2050223;28;20183;-72
2022/02/08 04:52:53;;;;;;;29.20;18.75;;;;;;;1.39;100.00;99509.84;2050321;28;20269;-72
2022/02/08 04:54:13;;;;;;;22.88;18.73;;;;;;;1.35;100.00;99520.03;2050189;28;20178;-72
2022/02/08 04:55:35;;;;;;;25.70;18.35;;;;;;;1.33;100.00;99531.81;2050208;28;20273;-71
2022/02/08 04:57:05;;;;;;;33.88;19.15;;;;;;;1.32;100.00;99525.75;2050116;28;20194;-72
2022/02/08 04:58:18;;;;;;;28.10;19.08;;;;;;;1.32;100.00;99531.00;2050370;28;20210;-72
2022/02/08 04:59:51;;;;;;;35.03;18.33;;;;;;;1.32;100.00;99543.34;2050152;28;20186;-72
2022/02/08 05:01:19;;;;;;;25.85;18.33;;;;;;;1.29;100.00;99541.94;2050413;28;20704;-71
2022/02/08 05:35:52;;;;;;;32.97;23.63;;;;;;;1.09;100.00;99580.84;2040804;29;20772;-72
2022/02/08 05:37:35;;;;;;;36.33;24.02;;;;;;;1.11;100.00;99584.84;2049963;28;20186;-72
2022/02/08 05:42:28;;;;;;;27.65;21.20;;;;;;;1.19;100.00;99582.94;2049965;28;20206;-73
2022/02/08 05:43:47;;;;;;;35.78;21.38;;;;;;;1.21;100.00;99589.56;2049859;28;20186;-72
2022/02/08 05:45:23;;;;;;;34.08;20.27;;;;;;;1.22;100.00;99585.13;2050028;28;20212;-73
2022/02/08 05:48:10;;;;;;;27.48;18.75;;;;;;;1.25;100.00;99579.44;2049836;28;20210;-73
2022/02/08 05:49:25;;;;;;;35.80;20.05;;;;;;;1.24;100.00;99580.47;2049893;28;20198;-73
2022/02/08 05:50:55;;;;;;;32.92;19.85;;;;;;;1.22;100.00;99593.03;2049416;28;20194;-72
2022/02/08 05:52:33;;;;;;;29.65;20.23;;;;;;;1.27;100.00;99590.50;2049847;28;20201;-72
2022/02/08 05:54:12;;;;;;;28.92;19.63;;;;;;;1.35;100.00;99587.56;2049833;28;20170;-73
2022/02/08 05:55:20;;;;;;;28.85;18.88;;;;;;;1.35;100.00;99587.56;2050095;28;20194;-72
2022/02/08 05:56:28;;;;;;;32.08;19.33;;;;;;;1.37;100.00;99586.31;2049821;28;20191;-72
2022/02/08 05:57:40;;;;;;;28.65;19.88;;;;;;;1.35;100.00;99587.56;2049856;28;20187;-73
2022/02/08 05:58:47;;;;;;;30.23;19.00;;;;;;;1.37;100.00;99590.78;2050032;28;20282;-73
2022/02/08 06:00:01;;;;;;;27.38;19.58;;;;;;;1.37;100.00;99601.28;2049990;28;20214;-72
2022/02/08 06:01:05;;;;;;;26.15;19.70;;;;;;;1.38;100.00;99605.53;2049942;28;20273;-73
2022/02/08 06:02:26;;;;;;;36.53;20.27;;;;;;;1.43;100.00;99592.53;2049070;29;20190;-72
2022/02/08 06:03:51;;;;;;;26.88;18.10;;;;;;;1.43;100.00;99597.78;2049434;29;20201;-73
2022/02/08 06:05:00;;;;;;;24.40;18.40;;;;;;;1.44;100.00;99594.13;2049643;28;20197;-73
2022/02/08 06:06:09;;;;;;;27.60;20.00;;;;;;;1.48;100.00;99597.09;2049146;29;20241;-72
2022/02/08 06:07:23;;;;;;;30.98;18.55;;;;;;;1.45;100.00;99601.00;2049152;29;20217;-74
2022/02/08 06:08:39;;;;;;;31.70;18.30;;;;;;;1.46;100.00;99599.16;2048889;29;20625;-73
2022/02/08 06:10:02;;;;;;;25.45;19.92;;;;;;;1.47;100.00;99596.31;2049356;28;20689;-73
2022/02/08 06:11:14;;;;;;;31.13;18.60;;;;;;;1.53;100.00;99608.56;2049522;29;20193;-73
2022/02/08 06:12:52;;;;;;;30.88;19.50;;;;;;;1.50;100.00;99597.69;2048980;29;20204;-73
2022/02/08 06:14:24;;;;;;;30.58;18.52;;;;;;;1.58;100.00;99598.19;2049493;28;20633;-73
2022/02/08 06:15:59;;;;;;;29.13;18.17;;;;;;;1.59;100.00;99609.50;2048863;29;20209;-73
2022/02/08 06:17:21;;;;;;;28.00;18.05;;;;;;;1.61;100.00;99600.38;2049217;29;20209;-72
2022/02/08 06:18:45;;;;;;;30.95;19.85;;;;;;;1.63;100.00;99600.13;2048875;29;20684;-73
2022/02/08 06:20:12;;;;;;;25.88;18.73;;;;;;;1.59;100.00;99607.69;2049058;29;20205;-73
2022/02/08 06:21:23;;;;;;;27.55;18.10;;;;;;;1.59;100.00;99605.06;2049273;29;20209;-73
2022/02/08 06:22:32;;;;;;;26.50;18.83;;;;;;;1.65;100.00;99608.59;2050240;28;20236;-73
2022/02/08 06:23:52;;;;;;;24.67;18.92;;;;;;;1.65;100.00;99617.31;2051018;28;20305;-73
2022/02/08 06:25:08;;;;;;;24.70;17.80;;;;;;;1.66;100.00;99616.28;2050625;29;20197;-73
2022/02/08 06:26:34;;;;;;;26.17;17.77;;;;;;;1.68;100.00;99616.06;2051320;28;20198;-73
2022/02/08 06:27:39;;;;;;;28.95;17.40;;;;;;;1.69;100.00;99631.59;2050992;28;20209;-73
2022/02/08 06:29:00;;;;;;;28.13;17.40;;;;;;;1.69;100.00;99615.81;2051358;28;20204;-73
2022/02/08 06:30:15;;;;;;;22.25;18.38;;;;;;;1.69;100.00;99623.72;2050904;28;20680;-73
2022/02/08 06:31:26;;;;;;;27.30;18.58;;;;;;;1.67;100.00;99625.78;2050982;29;20219;-73